Time;durP1;ratioP1;P1;durP2;ratioP2;P2;SDS_P1;SDS_P2;PMS_P1;PMS_P2;Temp;Humidity;BMP_temperature;BMP_pressure;BME280_temperature;BME280_humidity;BME280_pressure;Samples;Min_cycle;Max_cycle;Signal;HPM_P1;HPM_P2
2024/02/10 00:01:21;;;;;;;20.52;2.72;;;;;;;;;;4986858;28;20034;-82
2024/02/10 00:03:49;;;;;;;18.38;3.17;;;;;;;;;;4989858;28;20066;-80
2024/02/10 00:06:16;;;;;;;20.80;3.17;;;;;;;;;;4987892;28;20035;-83
2024/02/10 00:08:43;;;;;;;28.58;3.30;;;;;;;;;;4989573;28;20046;-81
2024/02/10 00:11:13;;;;;;;27.25;3.05;;;;;;;;;;4989905;28;20046;-81
2024/02/10 00:13:41;;;;;;;26.75;3.40;;;;;;;;;;4994310;28;20050;-82
2024/02/10 00:16:10;;;;;;;22.98;3.10;;;;;;;;;;4976051;28;20092;-81
2024/02/10 00:18:40;;;;;;;28.48;4.10;;;;;;;;;;4992883;28;20053;-81
2024/02/10 00:21:07;;;;;;;39.20;4.82;;;;;;;;;;4993795;28;20094;-81
2024/02/10 00:23:34;;;;;;;28.25;4.57;;;;;;;;;;4994762;28;20133;-81
2024/02/10 00:26:03;;;;;;;33.90;4.03;;;;;;;;;;4994741;28;20053;-82
2024/02/10 00:28:34;;;;;;;30.73;4.13;;;;;;;;;;4994502;28;20042;-82
2024/02/10 00:31:02;;;;;;;31.90;5.95;;;;;;;;;;4994740;28;20418;-82
2024/02/10 00:33:30;;;;;;;27.85;3.85;;;;;;;;;;4993909;28;20042;-81
2024/02/10 00:35:56;;;;;;;37.97;5.13;;;;;;;;;;4995405;28;20058;-83
2024/02/10 00:38:23;;;;;;;28.27;3.85;;;;;;;;;;4995464;28;20042;-82
2024/02/10 00:40:50;;;;;;;31.25;3.97;;;;;;;;;;4995705;28;20054;-82
2024/02/10 00:43:17;;;;;;;27.45;3.67;;;;;;;;;;4995386;28;20504;-83
2024/02/10 00:45:46;;;;;;;34.53;4.22;;;;;;;;;;4995671;28;20073;-82
2024/02/10 00:48:13;;;;;;;39.53;4.20;;;;;;;;;;4978149;28;20125;-81
2024/02/10 00:50:41;;;;;;;34.88;4.40;;;;;;;;;;4995759;28;20046;-81
2024/02/10 00:53:09;;;;;;;39.08;4.07;;;;;;;;;;4995281;28;20092;-82
2024/02/10 00:55:36;;;;;;;30.23;4.50;;;;;;;;;;4995810;28;20138;-81
2024/02/10 00:58:06;;;;;;;28.27;3.60;;;;;;;;;;4978464;28;20065;-82
2024/02/10 01:00:34;;;;;;;38.38;5.18;;;;;;;;;;4995267;28;20050;-81
2024/02/10 01:03:02;;;;;;;26.58;3.70;;;;;;;;;;4995547;28;20042;-81
2024/02/10 01:05:29;;;;;;;32.47;4.95;;;;;;;;;;4995301;28;20481;-82
2024/02/10 01:07:59;;;;;;;34.95;3.28;;;;;;;;;;4995499;28;20050;-82
2024/02/10 01:10:30;;;;;;;30.13;3.45;;;;;;;;;;4994751;28;20058;-82
2024/02/10 01:13:04;;;;;;;37.75;4.40;;;;;;;;;;4995447;28;20070;-81
2024/02/10 01:15:32;;;;;;;28.25;4.38;;;;;;;;;;4995035;28;20054;-83
2024/02/10 01:18:03;;;;;;;;;;;;;;;;;;4995775;28;20150;-81
2024/02/10 01:20:30;;;;;;;28.35;3.38;;;;;;;;;;4993970;28;20268;-82
2024/02/10 01:22:59;;;;;;;37.95;3.65;;;;;;;;;;4993268;28;20074;-81
2024/02/10 01:25:29;;;;;;;24.88;4.38;;;;;;;;;;4994728;28;20039;-80
2024/02/10 01:27:56;;;;;;;26.70;2.97;;;;;;;;;;4995167;28;20046;-81
2024/02/10 01:30:26;;;;;;;21.98;2.58;;;;;;;;;;4994432;28;20081;-80
2024/02/10 01:32:57;;;;;;;27.42;2.70;;;;;;;;;;4995166;28;20038;-81
2024/02/10 01:35:25;;;;;;;20.50;2.90;;;;;;;;;;4942284;28;20043;-81
2024/02/10 01:37:52;;;;;;;20.25;3.08;;;;;;;;;;4975640;28;20125;-81
2024/02/10 01:40:19;;;;;;;17.05;2.40;;;;;;;;;;4985893;28;20137;-81
2024/02/10 01:42:46;;;;;;;18.27;2.88;;;;;;;;;;4994753;28;20048;-81
2024/02/10 01:45:13;;;;;;;26.63;2.85;;;;;;;;;;4994104;28;20053;-81
2024/02/10 01:47:45;;;;;;;16.17;2.45;;;;;;;;;;4994772;28;20058;-81
2024/02/10 01:50:13;;;;;;;32.58;3.45;;;;;;;;;;4994017;28;20042;-80
2024/02/10 01:52:40;;;;;;;26.70;3.03;;;;;;;;;;4977586;28;20046;-81
2024/02/10 01:55:10;;;;;;;22.75;2.97;;;;;;;;;;4994076;28;20062;-82
2024/02/10 01:57:38;;;;;;;18.60;2.38;;;;;;;;;;4994387;28;20477;-81
2024/02/10 02:00:06;;;;;;;22.67;2.73;;;;;;;;;;4994541;28;20038;-82
2024/02/10 02:02:33;;;;;;;20.75;3.50;;;;;;;;;;4994191;28;20109;-81
2024/02/10 02:05:02;;;;;;;22.92;3.20;;;;;;;;;;4994264;28;20050;-82
2024/02/10 02:07:30;;;;;;;19.85;2.78;;;;;;;;;;4994119;28;20131;-81
2024/02/10 02:09:59;;;;;;;28.27;3.38;;;;;;;;;;4994035;28;20133;-82
2024/02/10 02:12:27;;;;;;;28.38;3.35;;;;;;;;;;4993715;28;20049;-82
2024/02/10 02:14:57;;;;;;;26.73;3.30;;;;;;;;;;4994232;28;20137;-81
2024/02/10 02:17:24;;;;;;;30.27;3.25;;;;;;;;;;4993581;28;20073;-82
2024/02/10 02:19:51;;;;;;;30.50;3.38;;;;;;;;;;4994090;28;20129;-82
2024/02/10 02:22:18;;;;;;;34.75;3.65;;;;;;;;;;4993530;28;20038;-81
2024/02/10 02:24:46;;;;;;;33.10;3.53;;;;;;;;;;4976860;28;20070;-83
2024/02/10 02:27:14;;;;;;;32.95;3.33;;;;;;;;;;4992529;28;20176;-82
2024/02/10 02:29:41;;;;;;;24.48;3.92;;;;;;;;;;4994088;28;20051;-82
2024/02/10 02:32:08;;;;;;;33.10;3.53;;;;;;;;;;4993448;28;20050;-81
2024/02/10 02:34:36;;;;;;;22.52;3.30;;;;;;;;;;4993696;28;20474;-81
2024/02/10 02:37:03;;;;;;;35.75;3.38;;;;;;;;;;4993945;28;20053;-80
2024/02/10 02:39:33;;;;;;;23.67;3.17;;;;;;;;;;4993429;28;20069;-82
2024/02/10 02:42:05;;;;;;;25.50;3.50;;;;;;;;;;4993862;28;20178;-82
2024/02/10 02:44:33;;;;;;;25.52;3.50;;;;;;;;;;4993569;28;20042;-81
2024/02/10 02:47:04;;;;;;;29.38;3.42;;;;;;;;;;4993591;28;20053;-81
2024/02/10 02:49:33;;;;;;;23.88;3.53;;;;;;;;;;4976509;28;20486;-81
2024/02/10 02:52:00;;;;;;;27.65;3.20;;;;;;;;;;4993580;28;20046;-81
2024/02/10 02:54:33;;;;;;;30.90;3.60;;;;;;;;;;4993006;28;20073;-82
2024/02/10 02:57:00;;;;;;;31.60;3.60;;;;;;;;;;4993687;28;20062;-82
2024/02/10 02:59:27;;;;;;;30.23;3.20;;;;;;;;;;4993044;28;20035;-81
2024/02/10 03:01:54;;;;;;;22.85;2.97;;;;;;;;;;4993389;28;20053;-81
2024/02/10 03:04:23;;;;;;;23.15;3.92;;;;;;;;;;4992980;28;20064;-82
2024/02/10 03:06:50;;;;;;;23.65;3.15;;;;;;;;;;4993482;28;20046;-81
2024/02/10 03:09:18;;;;;;;25.20;3.40;;;;;;;;;;4993006;28;20042;-81
2024/02/10 03:11:45;;;;;;;19.13;3.00;;;;;;;;;;4993430;28;20049;-81
2024/02/10 03:14:12;;;;;;;31.90;3.95;;;;;;;;;;4975612;28;20510;-81
2024/02/10 03:16:38;;;;;;;31.20;3.83;;;;;;;;;;4993478;28;20062;-81
2024/02/10 03:19:06;;;;;;;34.17;4.03;;;;;;;;;;4992852;28;20061;-80
2024/02/10 03:21:36;;;;;;;36.50;3.83;;;;;;;;;;4993271;28;20058;-80
2024/02/10 03:24:04;;;;;;;26.02;3.85;;;;;;;;;;4976062;28;20097;-81
2024/02/10 03:26:32;;;;;;;45.22;4.25;;;;;;;;;;4993121;28;20038;-82
2024/02/10 03:29:02;;;;;;;25.77;3.73;;;;;;;;;;4993326;28;20046;-82
2024/02/10 03:31:30;;;;;;;22.05;3.17;;;;;;;;;;4992961;28;20369;-82
2024/02/10 03:33:56;;;;;;;23.10;3.90;;;;;;;;;;4993323;28;20062;-82
2024/02/10 03:36:24;;;;;;;28.30;3.65;;;;;;;;;;4992658;28;20481;-81
2024/02/10 03:39:03;;;;;;;37.97;4.22;;;;;;;;;;4959761;28;20382;-82
2024/02/10 03:41:30;;;;;;;;;;;;;;;;;;4993240;28;20039;-82
2024/02/10 03:43:56;;;;;;;23.65;3.97;;;;;;;;;;4993220;28;19953;-81
2024/02/10 03:46:23;;;;;;;22.20;3.05;;;;;;;;;;4994435;28;20097;-82
2024/02/10 03:48:52;;;;;;;32.80;4.43;;;;;;;;;;4996870;28;20093;-81
2024/02/10 03:51:19;;;;;;;18.08;3.92;;;;;;;;;;4979255;28;20050;-81
2024/02/10 03:53:46;;;;;;;29.30;4.22;;;;;;;;;;4996766;28;20137;-81
2024/02/10 03:56:12;;;;;;;29.05;3.30;;;;;;;;;;4995073;28;20038;-81
2024/02/10 03:58:43;;;;;;;29.27;3.17;;;;;;;;;;4979551;28;20532;-81
2024/02/10 04:01:13;;;;;;;28.95;4.00;;;;;;;;;;4978767;28;20105;-81
2024/02/10 04:03:44;;;;;;;27.20;3.55;;;;;;;;;;4996560;28;20485;-81
2024/02/10 04:06:15;;;;;;;31.85;3.90;;;;;;;;;;4995002;28;20046;-81
2024/02/10 04:08:45;;;;;;;37.60;4.60;;;;;;;;;;4996516;28;20050;-81
2024/02/10 04:11:13;;;;;;;32.45;4.40;;;;;;;;;;4996038;28;20134;-81
2024/02/10 04:13:43;;;;;;;44.35;6.10;;;;;;;;;;4996398;28;20470;-82
2024/02/10 04:16:13;;;;;;;39.65;4.97;;;;;;;;;;4995832;28;20054;-81
2024/02/10 04:18:40;;;;;;;32.65;4.40;;;;;;;;;;4996525;28;20046;-81
2024/02/10 04:21:09;;;;;;;37.80;5.30;;;;;;;;;;4995796;28;20050;-81
2024/02/10 04:23:39;;;;;;;33.47;5.43;;;;;;;;;;4996362;28;20050;-81
2024/02/10 04:26:07;;;;;;;32.47;5.10;;;;;;;;;;4978351;28;20367;-81
2024/02/10 04:28:34;;;;;;;38.45;4.00;;;;;;;;;;4996152;28;20054;-81
2024/02/10 04:31:03;;;;;;;33.65;4.97;;;;;;;;;;4996182;28;20378;-80
2024/02/10 04:33:30;;;;;;;33.17;4.68;;;;;;;;;;4995878;28;20047;-81
2024/02/10 04:35:57;;;;;;;38.85;5.88;;;;;;;;;;4996100;28;20078;-81
2024/02/10 04:38:24;;;;;;;33.13;4.50;;;;;;;;;;4995601;28;20132;-81
2024/02/10 04:40:51;;;;;;;35.05;4.30;;;;;;;;;;4995634;28;20493;-81
2024/02/10 04:43:19;;;;;;;36.70;5.03;;;;;;;;;;4995533;28;20129;-81
2024/02/10 04:45:48;;;;;;;35.70;4.88;;;;;;;;;;4994832;28;20046;-82
2024/02/10 04:48:19;;;;;;;24.83;3.92;;;;;;;;;;4995338;28;20133;-81
2024/02/10 04:50:47;;;;;;;40.85;5.88;;;;;;;;;;4995700;28;20446;-80
2024/02/10 04:53:17;;;;;;;37.33;5.68;;;;;;;;;;4994185;28;20038;-81
2024/02/10 04:55:44;;;;;;;37.80;5.15;;;;;;;;;;4995630;28;20054;-81
2024/02/10 04:58:12;;;;;;;39.85;5.70;;;;;;;;;;4994013;28;20438;-81
2024/02/10 05:00:41;;;;;;;33.45;4.18;;;;;;;;;;4995620;28;20050;-81
2024/02/10 05:03:08;;;;;;;39.05;5.72;;;;;;;;;;4995144;28;20097;-80
2024/02/10 05:05:35;;;;;;;38.92;6.22;;;;;;;;;;4995540;28;20050;-81
2024/02/10 05:08:02;;;;;;;28.13;5.05;;;;;;;;;;4995358;28;20421;-81
2024/02/10 05:10:29;;;;;;;29.75;5.35;;;;;;;;;;4995231;28;20429;-81
2024/02/10 05:12:56;;;;;;;40.92;4.90;;;;;;;;;;4994185;28;20477;-80
2024/02/10 05:15:24;;;;;;;35.28;5.40;;;;;;;;;;4977909;28;20121;-81
2024/02/10 05:17:52;;;;;;;27.55;5.30;;;;;;;;;;4995232;28;20054;-81
2024/02/10 05:20:26;;;;;;;49.22;5.78;;;;;;;;;;4994861;28;20038;-81
2024/02/10 05:22:56;;;;;;;39.38;5.88;;;;;;;;;;4995330;28;20047;-81
2024/02/10 05:25:24;;;;;;;41.55;7.20;;;;;;;;;;4994570;28;20125;-83
2024/02/10 05:27:51;;;;;;;43.60;5.53;;;;;;;;;;4995292;28;20046;-80
2024/02/10 05:30:21;;;;;;;35.25;5.00;;;;;;;;;;4994665;28;20377;-82
2024/02/10 05:32:52;;;;;;;38.92;5.57;;;;;;;;;;4995047;28;20046;-81
2024/02/10 05:35:20;;;;;;;34.60;5.20;;;;;;;;;;4994640;28;20062;-81
2024/02/10 05:37:49;;;;;;;49.00;6.85;;;;;;;;;;4995018;28;20050;-80
2024/02/10 05:40:17;;;;;;;30.52;4.93;;;;;;;;;;4977125;28;20042;-81
2024/02/10 05:42:47;;;;;;;40.47;5.85;;;;;;;;;;4977812;28;20045;-81
2024/02/10 05:45:17;;;;;;;38.50;6.57;;;;;;;;;;4994365;28;20046;-81
2024/02/10 05:47:50;;;;;;;37.28;7.03;;;;;;;;;;4994934;28;20100;-80
2024/02/10 05:50:23;;;;;;;40.17;6.68;;;;;;;;;;4976977;28;20397;-81
2024/02/10 05:52:52;;;;;;;37.97;7.30;;;;;;;;;;4994610;28;20042;-81
2024/02/10 05:55:25;;;;;;;45.65;8.10;;;;;;;;;;4994246;28;20049;-82
2024/02/10 05:57:55;;;;;;;57.17;7.75;;;;;;;;;;4994625;28;20054;-81
2024/02/10 06:00:22;;;;;;;55.35;8.30;;;;;;;;;;4993977;28;20046;-81
2024/02/10 06:02:49;;;;;;;51.55;8.75;;;;;;;;;;4994691;28;20043;-82
2024/02/10 06:05:16;;;;;;;46.58;7.53;;;;;;;;;;4993988;28;20096;-81
2024/02/10 06:07:45;;;;;;;51.42;8.07;;;;;;;;;;4994287;28;20537;-82
2024/02/10 06:10:13;;;;;;;44.13;8.80;;;;;;;;;;4993294;28;20049;-81
2024/02/10 06:12:45;;;;;;;46.30;7.15;;;;;;;;;;4994591;28;20046;-81
2024/02/10 06:15:13;;;;;;;48.08;9.45;;;;;;;;;;4993826;28;20041;-82
2024/02/10 06:17:42;;;;;;;47.47;8.80;;;;;;;;;;4994218;28;20054;-81
2024/02/10 06:20:14;;;;;;;31.98;7.90;;;;;;;;;;4993468;28;20519;-81
2024/02/10 06:22:46;;;;;;;37.75;8.43;;;;;;;;;;4994135;28;20046;-81
2024/02/10 06:25:22;;;;;;;51.33;8.95;;;;;;;;;;4993580;28;20146;-81
2024/02/10 06:27:52;;;;;;;31.08;8.10;;;;;;;;;;4994145;28;20062;-82
2024/02/10 06:30:20;;;;;;;53.85;10.52;;;;;;;;;;4976141;28;20054;-82
2024/02/10 06:32:47;;;;;;;51.92;10.48;;;;;;;;;;4976780;28;20038;-82
2024/02/10 06:35:19;;;;;;;41.05;8.30;;;;;;;;;;4993583;28;20413;-82
2024/02/10 06:37:49;;;;;;;44.53;7.78;;;;;;;;;;4993923;28;20151;-83
2024/02/10 06:40:17;;;;;;;34.33;7.90;;;;;;;;;;4993315;28;20508;-83
2024/02/10 06:42:54;;;;;;;50.00;9.40;;;;;;;;;;4993800;28;20042;-81
2024/02/10 06:45:21;;;;;;;53.55;10.93;;;;;;;;;;4993440;28;20340;-82
2024/02/10 06:47:50;;;;;;;45.47;10.20;;;;;;;;;;4993900;28;20056;-81
2024/02/10 06:50:29;;;;;;;45.10;11.80;;;;;;;;;;4993208;28;20329;-82
2024/02/10 06:52:59;;;;;;;37.58;10.85;;;;;;;;;;4992523;28;20046;-82
2024/02/10 06:55:28;;;;;;;36.97;10.82;;;;;;;;;;4993000;28;20385;-82
2024/02/10 06:57:55;;;;;;;30.83;9.05;;;;;;;;;;4993542;28;20142;-81
2024/02/10 07:00:23;;;;;;;31.33;10.85;;;;;;;;;;4975923;28;20429;-82
2024/02/10 07:02:53;;;;;;;39.15;11.25;;;;;;;;;;4983165;28;20038;-85
2024/02/10 07:05:22;;;;;;;35.35;9.75;;;;;;;;;;4983032;28;20096;-82
2024/02/10 07:07:50;;;;;;;46.25;10.60;;;;;;;;;;4987314;28;20046;-82
2024/02/10 07:10:19;;;;;;;35.30;9.65;;;;;;;;;;4970862;28;20045;-82
2024/02/10 07:12:48;;;;;;;35.60;10.75;;;;;;;;;;4982980;28;20042;-82
2024/02/10 07:15:23;;;;;;;38.00;10.27;;;;;;;;;;4992981;28;20042;-82
2024/02/10 07:17:52;;;;;;;41.30;10.15;;;;;;;;;;4992173;28;20105;-82
2024/02/10 07:20:23;;;;;;;41.58;11.35;;;;;;;;;;4992920;28;20069;-82
2024/02/10 07:22:55;;;;;;;33.40;11.38;;;;;;;;;;4997608;28;20046;-82
2024/02/10 07:25:22;;;;;;;39.75;10.07;;;;;;;;;;4996988;28;20389;-82
2024/02/10 07:27:50;;;;;;;33.22;9.73;;;;;;;;;;4997080;28;20047;-81
2024/02/10 07:30:20;;;;;;;39.05;10.27;;;;;;;;;;4978860;28;20039;-82
2024/02/10 07:32:47;;;;;;;31.05;9.85;;;;;;;;;;4997195;28;20063;-82
2024/02/10 07:35:22;;;;;;;38.38;10.00;;;;;;;;;;4996770;28;20046;-81
2024/02/10 07:37:49;;;;;;;31.40;10.18;;;;;;;;;;4980064;28;20130;-82
2024/02/10 07:40:19;;;;;;;46.92;10.75;;;;;;;;;;4995593;28;20053;-82
2024/02/10 07:42:46;;;;;;;51.65;11.10;;;;;;;;;;4988249;28;20053;-82
2024/02/10 07:45:13;;;;;;;32.58;10.10;;;;;;;;;;4994691;28;20051;-81
2024/02/10 07:47:40;;;;;;;42.85;10.52;;;;;;;;;;4986888;28;20054;-80
2024/02/10 07:50:08;;;;;;;40.08;11.00;;;;;;;;;;4986689;28;20157;-80
2024/02/10 07:52:35;;;;;;;46.83;11.25;;;;;;;;;;4993177;28;20050;-80
2024/02/10 07:55:02;;;;;;;42.47;11.40;;;;;;;;;;4993923;28;20061;-80
2024/02/10 07:57:29;;;;;;;45.63;10.65;;;;;;;;;;4994876;28;20556;-81
2024/02/10 07:59:56;;;;;;;38.83;9.15;;;;;;;;;;5007993;28;20069;-80
2024/02/10 08:02:27;;;;;;;33.75;8.25;;;;;;;;;;4994886;28;20050;-80
2024/02/10 08:04:56;;;;;;;33.58;8.35;;;;;;;;;;4995075;28;20054;-81
2024/02/10 08:07:29;;;;;;;51.45;8.65;;;;;;;;;;4993437;28;20064;-80
2024/02/10 08:09:58;;;;;;;34.92;8.02;;;;;;;;;;4997792;28;20473;-80
2024/02/10 08:12:26;;;;;;;40.00;9.10;;;;;;;;;;4994240;28;20049;-81
2024/02/10 08:14:55;;;;;;;41.23;7.77;;;;;;;;;;4994795;28;20286;-83
2024/02/10 08:17:26;;;;;;;46.67;9.60;;;;;;;;;;4994580;28;20046;-82
2024/02/10 08:20:00;;;;;;;41.63;10.27;;;;;;;;;;4994915;28;20109;-81
2024/02/10 08:22:30;;;;;;;37.88;9.57;;;;;;;;;;4994349;28;20457;-81
2024/02/10 08:24:58;;;;;;;45.53;12.63;;;;;;;;;;4977203;28;20520;-81
2024/02/10 08:27:26;;;;;;;39.80;8.68;;;;;;;;;;4993017;28;20049;-81
2024/02/10 08:29:53;;;;;;;45.63;10.68;;;;;;;;;;4994755;28;20039;-81
2024/02/10 08:32:21;;;;;;;43.33;10.85;;;;;;;;;;4993924;28;20125;-82
2024/02/10 08:34:48;;;;;;;47.88;10.23;;;;;;;;;;4994370;28;20042;-82
2024/02/10 08:37:15;;;;;;;49.55;12.38;;;;;;;;;;4994131;28;20046;-81
2024/02/10 08:39:45;;;;;;;42.55;11.07;;;;;;;;;;4995070;28;20528;-82
2024/02/10 08:42:12;;;;;;;38.53;10.32;;;;;;;;;;4994040;28;20137;-81
2024/02/10 08:44:39;;;;;;;45.22;11.50;;;;;;;;;;4994148;28;20393;-80
2024/02/10 08:47:07;;;;;;;41.63;10.35;;;;;;;;;;4994029;28;20050;-81
2024/02/10 08:49:38;;;;;;;38.28;11.25;;;;;;;;;;4993132;28;20061;-81
2024/02/10 08:52:28;;;;;;;37.63;11.00;;;;;;;;;;4976174;28;20454;-81
2024/02/10 08:54:56;;;;;;;54.22;11.68;;;;;;;;;;4994440;28;20046;-82
2024/02/10 08:57:25;;;;;;;46.85;9.90;;;;;;;;;;4993643;28;20073;-81
2024/02/10 08:59:53;;;;;;;35.25;7.88;;;;;;;;;;4994114;28;20054;-82
2024/02/10 09:02:23;;;;;;;47.75;7.60;;;;;;;;;;4976025;28;20057;-82
2024/02/10 09:04:53;;;;;;;39.47;7.07;;;;;;;;;;4994142;28;20050;-82
2024/02/10 09:07:20;;;;;;;30.08;5.85;;;;;;;;;;4993555;28;20046;-82
2024/02/10 09:09:47;;;;;;;36.88;6.53;;;;;;;;;;4993588;28;20070;-82
2024/02/10 09:12:14;;;;;;;29.83;5.28;;;;;;;;;;4992661;28;20066;-83
2024/02/10 09:14:41;;;;;;;24.83;4.68;;;;;;;;;;4994031;28;20506;-83
2024/02/10 09:17:08;;;;;;;29.17;5.43;;;;;;;;;;4993213;28;20373;-82
2024/02/10 09:19:35;;;;;;;34.47;5.55;;;;;;;;;;4976180;28;20046;-82
2024/02/10 09:22:05;;;;;;;30.70;4.43;;;;;;;;;;4993421;28;20042;-82
2024/02/10 09:24:32;;;;;;;38.00;5.10;;;;;;;;;;4993432;28;20038;-82
2024/02/10 09:27:02;;;;;;;28.33;5.45;;;;;;;;;;4976373;28;20112;-82
2024/02/10 09:29:29;;;;;;;28.65;5.25;;;;;;;;;;4993417;28;20077;-80
2024/02/10 09:31:59;;;;;;;31.25;4.88;;;;;;;;;;4993156;28;20042;-82
2024/02/10 09:34:27;;;;;;;34.97;4.55;;;;;;;;;;4992897;28;20121;-82
2024/02/10 09:36:58;;;;;;;33.25;4.43;;;;;;;;;;4993148;28;20136;-82
2024/02/10 09:39:25;;;;;;;30.15;5.75;;;;;;;;;;4975791;28;20512;-82
2024/02/10 09:41:59;;;;;;;26.58;4.00;;;;;;;;;;4980964;28;20046;-82
2024/02/10 09:44:31;;;;;;;29.25;4.38;;;;;;;;;;4992396;28;20129;-82
2024/02/10 09:47:00;;;;;;;24.92;3.63;;;;;;;;;;4993298;28;20053;-82
2024/02/10 09:49:33;;;;;;;29.67;4.68;;;;;;;;;;4992462;28;20050;-82
2024/02/10 09:52:00;;;;;;;29.92;5.03;;;;;;;;;;4993127;28;20042;-81
2024/02/10 09:54:27;;;;;;;33.20;5.88;;;;;;;;;;4992433;28;20149;-82
2024/02/10 09:56:56;;;;;;;28.50;4.68;;;;;;;;;;4975698;28;20043;-82
2024/02/10 09:59:24;;;;;;;29.27;5.95;;;;;;;;;;4991854;28;20121;-81
2024/02/10 10:01:53;;;;;;;;;;;;;;;;;;4993377;28;20493;-82
2024/02/10 10:04:21;;;;;;;31.02;6.68;;;;;;;;;;4974629;28;19933;-82
2024/02/10 10:06:49;;;;;;;30.45;6.13;;;;;;;;;;5003506;28;20053;-83
2024/02/10 10:09:18;;;;;;;37.80;6.13;;;;;;;;;;4992496;28;20047;-82
2024/02/10 10:11:48;;;;;;;38.22;6.55;;;;;;;;;;4975131;28;20065;-82
2024/02/10 10:14:18;;;;;;;44.55;7.15;;;;;;;;;;4992092;28;20101;-82
2024/02/10 10:17:00;;;;;;;48.85;7.22;;;;;;;;;;4992815;28;20046;-82
2024/02/10 10:19:27;;;;;;;42.45;7.35;;;;;;;;;;4981042;28;20043;-83
2024/02/10 10:21:56;;;;;;;44.03;5.82;;;;;;;;;;4991481;28;20062;-82
2024/02/10 10:24:27;;;;;;;30.98;4.47;;;;;;;;;;4991650;28;20065;-82
2024/02/10 10:26:56;;;;;;;35.25;5.10;;;;;;;;;;4992513;28;20046;-83
2024/02/10 10:29:23;;;;;;;33.10;5.70;;;;;;;;;;4992040;28;20042;-82
2024/02/10 10:31:53;;;;;;;28.80;4.32;;;;;;;;;;4992210;28;20050;-81
2024/02/10 10:34:22;;;;;;;34.90;4.90;;;;;;;;;;4991670;28;20512;-82
2024/02/10 10:36:52;;;;;;;30.35;4.80;;;;;;;;;;4992071;28;20377;-81
2024/02/10 10:39:21;;;;;;;34.88;5.13;;;;;;;;;;4991798;28;20393;-81
2024/02/10 10:41:49;;;;;;;25.15;4.57;;;;;;;;;;4992431;28;20485;-82
2024/02/10 10:44:17;;;;;;;26.35;4.30;;;;;;;;;;4991699;28;20046;-82
2024/02/10 10:46:45;;;;;;;26.85;3.70;;;;;;;;;;4992376;28;20137;-82
2024/02/10 10:49:12;;;;;;;29.77;4.20;;;;;;;;;;4989875;28;20113;-82
2024/02/10 10:51:59;;;;;;;46.90;6.80;;;;;;;;;;4992078;28;20042;-80
2024/02/10 10:54:31;;;;;;;35.45;5.22;;;;;;;;;;4989888;28;20046;-81
2024/02/10 10:57:02;;;;;;;32.70;4.55;;;;;;;;;;4992169;28;20100;-81
2024/02/10 10:59:35;;;;;;;24.15;3.95;;;;;;;;;;4974242;28;20050;-80
2024/02/10 11:02:06;;;;;;;30.83;4.57;;;;;;;;;;4976175;28;20424;-81
2024/02/10 11:04:35;;;;;;;26.08;3.85;;;;;;;;;;5005587;28;20447;-81
2024/02/10 11:07:11;;;;;;;36.65;4.65;;;;;;;;;;4991923;28;20061;-82
2024/02/10 11:09:47;;;;;;;23.15;4.22;;;;;;;;;;4991442;28;20046;-82
2024/02/10 11:12:17;;;;;;;32.10;3.58;;;;;;;;;;4990195;28;20133;-81
2024/02/10 11:14:56;;;;;;;24.15;3.20;;;;;;;;;;4990614;28;20097;-81
2024/02/10 11:17:29;;;;;;;30.25;3.35;;;;;;;;;;4990004;28;22747;-81
2024/02/10 11:20:00;;;;;;;22.48;5.15;;;;;;;;;;4991765;28;20057;-82
2024/02/10 11:22:37;;;;;;;31.77;3.78;;;;;;;;;;4990971;28;20073;-82
2024/02/10 11:25:11;;;;;;;24.75;4.85;;;;;;;;;;4974074;28;20038;-81
2024/02/10 11:27:46;;;;;;;31.73;4.20;;;;;;;;;;4991672;28;20050;-81
2024/02/10 11:30:13;;;;;;;28.75;3.75;;;;;;;;;;4990083;28;20042;-82
2024/02/10 11:32:45;;;;;;;19.75;3.28;;;;;;;;;;5003139;28;20053;-81
2024/02/10 11:35:12;;;;;;;27.33;3.90;;;;;;;;;;5002820;28;20049;-81
2024/02/10 11:37:40;;;;;;;23.70;3.70;;;;;;;;;;4991788;28;20038;-81
2024/02/10 11:40:11;;;;;;;19.50;2.75;;;;;;;;;;4990966;28;20045;-82
2024/02/10 11:42:39;;;;;;;20.75;3.35;;;;;;;;;;4990361;28;20042;-82
2024/02/10 11:45:09;;;;;;;24.27;3.33;;;;;;;;;;4978536;28;20042;-80
2024/02/10 11:47:37;;;;;;;27.80;3.90;;;;;;;;;;4991151;28;20046;-81
2024/02/10 11:50:05;;;;;;;29.17;4.10;;;;;;;;;;4991144;28;20390;-82
2024/02/10 11:52:32;;;;;;;21.10;3.65;;;;;;;;;;4991192;28;20054;-82
2024/02/10 11:54:59;;;;;;;27.42;3.88;;;;;;;;;;4974104;28;20046;-82
2024/02/10 11:57:27;;;;;;;29.52;3.30;;;;;;;;;;4991717;28;20046;-80
2024/02/10 11:59:54;;;;;;;28.90;3.38;;;;;;;;;;5003409;28;20042;-82
2024/02/10 12:02:23;;;;;;;24.45;4.05;;;;;;;;;;4990731;28;20485;-81
2024/02/10 12:04:51;;;;;;;24.85;4.18;;;;;;;;;;4991257;28;20150;-82
2024/02/10 12:07:19;;;;;;;29.10;3.47;;;;;;;;;;4992513;28;20066;-82
2024/02/10 12:09:47;;;;;;;33.17;5.05;;;;;;;;;;4994474;28;20053;-83
2024/02/10 12:12:15;;;;;;;46.00;5.22;;;;;;;;;;4994356;28;20112;-81
2024/02/10 12:14:42;;;;;;;25.17;4.40;;;;;;;;;;4994256;28;20252;-81
2024/02/10 12:17:09;;;;;;;40.38;4.35;;;;;;;;;;4994250;28;20058;-81
2024/02/10 12:19:39;;;;;;;41.20;4.97;;;;;;;;;;4994655;28;20057;-81
2024/02/10 12:22:09;;;;;;;31.23;4.50;;;;;;;;;;4991581;28;20052;-81
2024/02/10 12:24:38;;;;;;;28.35;4.28;;;;;;;;;;4994464;28;20057;-82
2024/02/10 12:27:05;;;;;;;31.27;4.30;;;;;;;;;;4993328;28;20053;-81
2024/02/10 12:29:31;;;;;;;42.55;6.05;;;;;;;;;;4994453;28;20046;-81
2024/02/10 12:31:59;;;;;;;38.92;5.68;;;;;;;;;;4994479;28;20551;-81
2024/02/10 12:34:26;;;;;;;30.27;4.53;;;;;;;;;;4993915;28;20070;-81
2024/02/10 12:36:53;;;;;;;42.47;5.25;;;;;;;;;;4994559;28;20125;-80
2024/02/10 12:39:20;;;;;;;37.08;5.50;;;;;;;;;;4994013;28;20045;-81
2024/02/10 12:41:46;;;;;;;47.30;6.30;;;;;;;;;;4994477;28;20507;-81
2024/02/10 12:44:13;;;;;;;30.35;5.00;;;;;;;;;;4993842;28;20093;-80
2024/02/10 12:46:40;;;;;;;43.25;6.25;;;;;;;;;;4994227;28;20047;-82
2024/02/10 12:49:08;;;;;;;36.63;6.07;;;;;;;;;;4992013;28;20039;-81
2024/02/10 12:51:35;;;;;;;38.67;4.47;;;;;;;;;;4994272;28;20050;-82
2024/02/10 12:54:02;;;;;;;44.67;6.60;;;;;;;;;;4998406;28;20033;-82
2024/02/10 12:56:29;;;;;;;47.50;5.57;;;;;;;;;;5001951;28;20088;-81
2024/02/10 12:58:57;;;;;;;39.20;5.15;;;;;;;;;;4994407;28;20039;-81
2024/02/10 13:01:25;;;;;;;33.97;5.93;;;;;;;;;;4979614;28;20116;-81
2024/02/10 13:03:52;;;;;;;;;;;;;;;;;;4988194;28;20057;-82
2024/02/10 13:06:20;;;;;;;40.70;6.32;;;;;;;;;;4993304;28;19969;-81
2024/02/10 13:08:49;;;;;;;42.67;6.07;;;;;;;;;;4987001;28;20121;-80
2024/02/10 13:11:16;;;;;;;38.72;5.43;;;;;;;;;;4976173;28;20097;-82
2024/02/10 13:13:44;;;;;;;33.10;5.13;;;;;;;;;;4993449;28;20050;-81
2024/02/10 13:16:11;;;;;;;34.63;4.40;;;;;;;;;;4992327;28;20046;-84
2024/02/10 13:18:38;;;;;;;37.45;4.35;;;;;;;;;;4991029;28;20147;-82
2024/02/10 13:21:16;;;;;;;29.75;4.55;;;;;;;;;;5000072;28;20046;-82
2024/02/10 13:23:44;;;;;;;26.83;4.72;;;;;;;;;;4979329;28;20103;-82
2024/02/10 13:26:13;;;;;;;31.20;4.97;;;;;;;;;;4992541;28;20042;-82
2024/02/10 13:28:42;;;;;;;22.55;3.95;;;;;;;;;;4992655;28;20050;-81
2024/02/10 13:31:10;;;;;;;35.40;4.70;;;;;;;;;;4993055;28;20049;-81
2024/02/10 13:33:39;;;;;;;41.58;5.30;;;;;;;;;;4993172;28;20441;-81
2024/02/10 13:36:15;;;;;;;38.67;6.30;;;;;;;;;;4993112;28;20035;-81
2024/02/10 14:00:40;;;;;;;28.95;4.68;;;;;;;;;;4992478;28;20124;-82
2024/02/10 14:03:11;;;;;;;39.90;6.05;;;;;;;;;;4992334;28;20050;-81
2024/02/10 14:11:23;;;;;;;33.83;4.40;;;;;;;;;;4992743;28;20046;-80
2024/02/10 14:13:51;;;;;;;31.48;3.63;;;;;;;;;;4990882;28;20133;-80
2024/02/10 14:16:27;;;;;;;24.38;3.90;;;;;;;;;;4992350;28;20130;-80
2024/02/10 14:19:01;;;;;;;36.53;7.65;;;;;;;;;;4980085;28;20046;-80
2024/02/10 14:21:37;;;;;;;26.05;4.90;;;;;;;;;;5002239;28;20050;-80
2024/02/10 14:24:06;;;;;;;33.90;4.78;;;;;;;;;;4991342;28;20049;-80
2024/02/10 14:26:51;;;;;;;36.00;4.95;;;;;;;;;;4992210;28;20039;-80
2024/02/10 14:29:33;;;;;;;42.67;8.15;;;;;;;;;;4991837;28;20039;-80
2024/02/10 14:32:09;;;;;;;27.80;5.38;;;;;;;;;;4992438;28;20053;-81
2024/02/10 14:35:02;;;;;;;33.35;5.07;;;;;;;;;;4992884;28;20046;-79
2024/02/10 14:37:41;;;;;;;26.63;5.88;;;;;;;;;;4992239;28;20318;-80
2024/02/10 14:40:18;;;;;;;26.52;4.38;;;;;;;;;;4993235;28;20049;-79
2024/02/10 14:42:47;;;;;;;39.00;5.70;;;;;;;;;;4993854;28;20466;-80
2024/02/10 14:45:14;;;;;;;28.92;6.70;;;;;;;;;;4992277;28;20078;-80
2024/02/10 14:47:41;;;;;;;41.97;8.18;;;;;;;;;;4992961;28;20120;-80
2024/02/10 14:50:10;;;;;;;34.90;5.55;;;;;;;;;;4990804;28;20038;-81
2024/02/10 14:52:41;;;;;;;38.97;6.05;;;;;;;;;;4991397;28;20481;-81
2024/02/10 14:55:08;;;;;;;48.17;7.05;;;;;;;;;;4991365;28;20058;-80
2024/02/10 14:57:35;;;;;;;44.58;5.93;;;;;;;;;;4991963;28;20039;-80
2024/02/10 15:00:02;;;;;;;37.72;6.60;;;;;;;;;;4991682;28;20038;-80
2024/02/10 15:02:29;;;;;;;46.50;6.03;;;;;;;;;;4990278;28;20381;-81
2024/02/10 15:04:56;;;;;;;46.38;9.55;;;;;;;;;;4990517;28;20385;-83
2024/02/10 15:07:24;;;;;;;45.22;9.35;;;;;;;;;;4975248;28;20495;-84
2024/02/10 15:09:51;;;;;;;44.67;5.00;;;;;;;;;;4981493;28;20101;-80